sensor_id;sensor_type;location;lat;lon;timestamp;pressure;altitude;pressure_sealevel;temperature;humidity
77003;BME280;65939;50.060;14.288;2024-03-29T00:00:28;95958.03;;;5.27;76.68
77003;BME280;65939;50.060;14.288;2024-03-29T00:02:29;95956.53;;;5.24;77.20
77003;BME280;65939;50.060;14.288;2024-03-29T00:04:29;95957.66;;;5.22;77.36
77003;BME280;65939;50.060;14.288;2024-03-29T00:06:31;95963.13;;;5.19;77.18
77003;BME280;65939;50.060;14.288;2024-03-29T00:08:32;95971.06;;;5.17;77.61
77003;BME280;65939;50.060;14.288;2024-03-29T00:10:33;95962.63;;;5.15;77.46
77003;BME280;65939;50.060;14.288;2024-03-29T00:12:34;95961.34;;;5.11;77.98
77003;BME280;65939;50.060;14.288;2024-03-29T00:14:34;95972.94;;;5.07;77.52
77003;BME280;65939;50.060;14.288;2024-03-29T00:16:35;95970.66;;;5.04;78.04
77003;BME280;65939;50.060;14.288;2024-03-29T00:18:36;95980.38;;;5.02;77.96
77003;BME280;65939;50.060;14.288;2024-03-29T00:20:36;95979.72;;;5.00;77.41
77003;BME280;65939;50.060;14.288;2024-03-29T00:22:37;95985.19;;;4.97;78.29
77003;BME280;65939;50.060;14.288;2024-03-29T00:24:38;95987.13;;;4.95;78.14
77003;BME280;65939;50.060;14.288;2024-03-29T00:26:39;95989.84;;;4.93;78.43
77003;BME280;65939;50.060;14.288;2024-03-29T00:28:39;95991.78;;;4.91;78.25
77003;BME280;65939;50.060;14.288;2024-03-29T00:30:40;95996.28;;;4.89;78.17
77003;BME280;65939;50.060;14.288;2024-03-29T00:32:41;96005.16;;;4.87;78.46
77003;BME280;65939;50.060;14.288;2024-03-29T00:34:41;96001.13;;;4.84;78.54
77003;BME280;65939;50.060;14.288;2024-03-29T00:36:42;96009.97;;;4.82;78.05
77003;BME280;65939;50.060;14.288;2024-03-29T00:38:43;96008.66;;;4.77;78.71
77003;BME280;65939;50.060;14.288;2024-03-29T00:40:43;96009.78;;;4.75;78.34
77003;BME280;65939;50.060;14.288;2024-03-29T00:42:44;96017.69;;;4.73;78.54
77003;BME280;65939;50.060;14.288;2024-03-29T00:44:45;96014.44;;;4.71;78.11
77003;BME280;65939;50.060;14.288;2024-03-29T00:46:45;96018.13;;;4.69;78.78
77003;BME280;65939;50.060;14.288;2024-03-29T00:48:46;96020.06;;;4.67;78.31
77003;BME280;65939;50.060;14.288;2024-03-29T00:50:47;96009.84;;;4.65;78.69
77003;BME280;65939;50.060;14.288;2024-03-29T00:52:48;96007.56;;;4.62;78.71
77003;BME280;65939;50.060;14.288;2024-03-29T00:54:49;96006.94;;;4.60;78.28
77003;BME280;65939;50.060;14.288;2024-03-29T00:56:51;96015.78;;;4.57;78.47
77003;BME280;65939;50.060;14.288;2024-03-29T00:58:51;96007.22;;;4.57;78.46
77003;BME280;65939;50.060;14.288;2024-03-29T01:00:52;96013.66;;;4.53;78.87
77003;BME280;65939;50.060;14.288;2024-03-29T01:02:53;96016.38;;;4.51;79.40
77003;BME280;65939;50.060;14.288;2024-03-29T01:04:53;96013.13;;;4.49;79.52
77003;BME280;65939;50.060;14.288;2024-03-29T01:06:55;96011.66;;;4.47;79.37
77003;BME280;65939;50.060;14.288;2024-03-29T01:08:56;96016.81;;;4.47;79.58
77003;BME280;65939;50.060;14.288;2024-03-29T01:10:57;96007.47;;;4.46;79.88
77003;BME280;65939;50.060;14.288;2024-03-29T01:12:58;96010.34;;;4.43;79.76
77003;BME280;65939;50.060;14.288;2024-03-29T01:14:59;96008.03;;;4.40;80.10
77003;BME280;65939;50.060;14.288;2024-03-29T01:16:59;96011.59;;;4.39;79.77
77003;BME280;65939;50.060;14.288;2024-03-29T01:19:00;96019.66;;;4.36;80.01
77003;BME280;65939;50.060;14.288;2024-03-29T01:21:01;96023.19;;;4.35;80.58
77003;BME280;65939;50.060;14.288;2024-03-29T01:23:03;96016.09;;;4.37;80.39
77003;BME280;65939;50.060;14.288;2024-03-29T01:25:04;96010.28;;;4.35;80.08
77003;BME280;65939;50.060;14.288;2024-03-29T01:27:08;96008.50;;;4.35;80.69
77003;BME280;65939;50.060;14.288;2024-03-29T01:29:09;96015.44;;;4.35;80.38
77003;BME280;65939;50.060;14.288;2024-03-29T01:31:09;96016.09;;;4.37;80.60
77003;BME280;65939;50.060;14.288;2024-03-29T01:33:10;96010.78;;;4.38;80.24
77003;BME280;65939;50.060;14.288;2024-03-29T01:35:11;96011.59;;;4.39;80.85
77003;BME280;65939;50.060;14.288;2024-03-29T01:37:12;96003.69;;;4.40;81.12
77003;BME280;65939;50.060;14.288;2024-03-29T01:39:12;95995.13;;;4.40;80.48
77003;BME280;65939;50.060;14.288;2024-03-29T01:41:15;95987.25;;;4.41;80.85
77003;BME280;65939;50.060;14.288;2024-03-29T01:43:16;95986.28;;;4.42;80.97
77003;BME280;65939;50.060;14.288;2024-03-29T01:45:17;95988.69;;;4.44;81.21
77003;BME280;65939;50.060;14.288;2024-03-29T01:47:18;95986.78;;;4.46;81.17
77003;BME280;65939;50.060;14.288;2024-03-29T01:49:19;95990.97;;;4.47;81.21
77003;BME280;65939;50.060;14.288;2024-03-29T01:51:21;95982.25;;;4.48;81.55
77003;BME280;65939;50.060;14.288;2024-03-29T01:53:26;95984.84;;;4.48;81.51
77003;BME280;65939;50.060;14.288;2024-03-29T01:55:27;95981.31;;;4.49;81.22
77003;BME280;65939;50.060;14.288;2024-03-29T01:57:28;95986.50;;;4.49;81.41
77003;BME280;65939;50.060;14.288;2024-03-29T01:59:32;95986.63;;;4.47;81.33
77003;BME280;65939;50.060;14.288;2024-03-29T02:01:33;95990.00;;;4.48;81.42
77003;BME280;65939;50.060;14.288;2024-03-29T02:03:36;96001.31;;;4.47;81.60
77003;BME280;65939;50.060;14.288;2024-03-29T02:05:37;96006.66;;;4.45;81.41
77003;BME280;65939;50.060;14.288;2024-03-29T02:07:38;96012.75;;;4.44;81.59
77003;BME280;65939;50.060;14.288;2024-03-29T02:09:39;96009.38;;;4.44;81.86
77003;BME280;65939;50.060;14.288;2024-03-29T02:11:43;96007.75;;;4.43;81.25
77003;BME280;65939;50.060;14.288;2024-03-29T02:13:44;96003.69;;;4.40;81.36
77003;BME280;65939;50.060;14.288;2024-03-29T02:15:45;96009.00;;;4.39;81.52
77003;BME280;65939;50.060;14.288;2024-03-29T02:17:46;96007.25;;;4.39;81.72
77003;BME280;65939;50.060;14.288;2024-03-29T02:19:47;96004.81;;;4.38;80.97
77003;BME280;65939;50.060;14.288;2024-03-29T02:21:48;96003.34;;;4.35;81.46
77003;BME280;65939;50.060;14.288;2024-03-29T02:24:06;96007.69;;;4.35;81.72
77003;BME280;65939;50.060;14.288;2024-03-29T02:26:07;96007.81;;;4.33;81.46
77003;BME280;65939;50.060;14.288;2024-03-29T02:28:07;96008.78;;;4.32;81.27
77003;BME280;65939;50.060;14.288;2024-03-29T02:30:08;96010.56;;;4.31;81.72
77003;BME280;65939;50.060;14.288;2024-03-29T02:32:09;96008.78;;;4.32;81.71
77003;BME280;65939;50.060;14.288;2024-03-29T02:34:09;96010.56;;;4.31;81.25
77003;BME280;65939;50.060;14.288;2024-03-29T02:36:10;96000.25;;;4.31;81.19
77003;BME280;65939;50.060;14.288;2024-03-29T02:38:14;96002.00;;;4.31;81.35
77003;BME280;65939;50.060;14.288;2024-03-29T02:40:14;96020.09;;;4.31;81.34
77003;BME280;65939;50.060;14.288;2024-03-29T02:42:15;96010.56;;;4.31;81.86
77003;BME280;65939;50.060;14.288;2024-03-29T02:44:16;96010.56;;;4.31;81.72
77003;BME280;65939;50.060;14.288;2024-03-29T02:46:17;96013.97;;;4.32;81.82
77003;BME280;65939;50.060;14.288;2024-03-29T02:48:17;96017.34;;;4.32;81.69
77003;BME280;65939;50.060;14.288;2024-03-29T02:50:18;96003.47;;;4.33;81.67
77003;BME280;65939;50.060;14.288;2024-03-29T02:52:19;96007.69;;;4.35;82.06
77003;BME280;65939;50.060;14.288;2024-03-29T02:54:22;96024.81;;;4.36;81.77
77003;BME280;65939;50.060;14.288;2024-03-29T02:56:23;96027.41;;;4.36;81.77
77003;BME280;65939;50.060;14.288;2024-03-29T02:58:23;96032.56;;;4.36;81.34
77003;BME280;65939;50.060;14.288;2024-03-29T03:00:24;96025.63;;;4.36;81.52
77003;BME280;65939;50.060;14.288;2024-03-29T03:02:25;96034.19;;;4.37;81.47
77003;BME280;65939;50.060;14.288;2024-03-29T03:04:25;96037.56;;;4.37;81.75
77003;BME280;65939;50.060;14.288;2024-03-29T03:06:26;96033.25;;;4.38;81.85
77003;BME280;65939;50.060;14.288;2024-03-29T03:08:27;96033.88;;;4.40;82.07
77003;BME280;65939;50.060;14.288;2024-03-29T03:10:47;96037.16;;;4.42;81.86
77003;BME280;65939;50.060;14.288;2024-03-29T03:12:56;96039.72;;;4.42;81.56
77003;BME280;65939;50.060;14.288;2024-03-29T03:14:57;96033.44;;;4.44;81.94
77003;BME280;65939;50.060;14.288;2024-03-29T03:16:59;96021.19;;;4.46;81.97
77003;BME280;65939;50.060;14.288;2024-03-29T03:19:00;96014.25;;;4.47;81.77
77003;BME280;65939;50.060;14.288;2024-03-29T03:21:01;96014.25;;;4.47;82.10
77003;BME280;65939;50.060;14.288;2024-03-29T03:23:03;96021.34;;;4.45;81.42
77003;BME280;65939;50.060;14.288;2024-03-29T03:25:04;96028.13;;;4.46;81.91
77003;BME280;65939;50.060;14.288;2024-03-29T03:27:05;96042.66;;;4.47;81.96
77003;BME280;65939;50.060;14.288;2024-03-29T03:29:06;96049.44;;;4.48;81.91
77003;BME280;65939;50.060;14.288;2024-03-29T03:31:08;96035.72;;;4.47;81.85
77003;BME280;65939;50.060;14.288;2024-03-29T03:33:09;96042.53;;;4.48;81.92
77003;BME280;65939;50.060;14.288;2024-03-29T03:35:10;96035.72;;;4.47;81.94
77003;BME280;65939;50.060;14.288;2024-03-29T03:37:10;96018.44;;;4.48;81.84
77003;BME280;65939;50.060;14.288;2024-03-29T03:39:11;96013.94;;;4.50;82.04
77003;BME280;65939;50.060;14.288;2024-03-29T03:41:12;96004.41;;;4.50;82.05
77003;BME280;65939;50.060;14.288;2024-03-29T03:43:13;96014.63;;;4.52;82.24
77003;BME280;65939;50.060;14.288;2024-03-29T03:45:13;96010.09;;;4.54;81.88
77003;BME280;65939;50.060;14.288;2024-03-29T03:47:14;96001.38;;;4.55;82.21
77003;BME280;65939;50.060;14.288;2024-03-29T03:49:15;95998.66;;;4.56;81.86
77003;BME280;65939;50.060;14.288;2024-03-29T03:51:15;96006.25;;;4.58;82.02
77003;BME280;65939;50.060;14.288;2024-03-29T03:53:16;95994.97;;;4.59;82.19
77003;BME280;65939;50.060;14.288;2024-03-29T03:55:17;95994.00;;;4.60;82.51
77003;BME280;65939;50.060;14.288;2024-03-29T03:57:17;96001.59;;;4.62;81.86
77003;BME280;65939;50.060;14.288;2024-03-29T03:59:18;96002.09;;;4.65;81.63
77003;BME280;65939;50.060;14.288;2024-03-29T04:01:19;95992.28;;;4.69;81.97
77003;BME280;65939;50.060;14.288;2024-03-29T04:03:19;95994.44;;;4.73;81.66
77003;BME280;65939;50.060;14.288;2024-03-29T04:05:20;95997.53;;;4.77;81.54
77003;BME280;65939;50.060;14.288;2024-03-29T04:07:21;96006.59;;;4.81;81.83
77003;BME280;65939;50.060;14.288;2024-03-29T04:09:22;96005.44;;;4.84;81.75
77003;BME280;65939;50.060;14.288;2024-03-29T04:11:23;96007.91;;;4.85;81.03
77003;BME280;65939;50.060;14.288;2024-03-29T04:13:26;96001.75;;;4.86;80.99
77003;BME280;65939;50.060;14.288;2024-03-29T04:15:27;96006.81;;;4.88;80.97
77003;BME280;65939;50.060;14.288;2024-03-29T04:17:28;96007.59;;;4.88;80.74
77003;BME280;65939;50.060;14.288;2024-03-29T04:19:30;95995.31;;;4.90;80.41
77003;BME280;65939;50.060;14.288;2024-03-29T04:21:31;95990.66;;;4.94;80.17
77003;BME280;65939;50.060;14.288;2024-03-29T04:23:31;95993.09;;;4.95;80.79
77003;BME280;65939;50.060;14.288;2024-03-29T04:25:33;95975.66;;;4.97;80.01
77003;BME280;65939;50.060;14.288;2024-03-29T04:27:33;95973.72;;;4.99;80.07
77003;BME280;65939;50.060;14.288;2024-03-29T04:29:34;95999.13;;;5.04;80.16
77003;BME280;65939;50.060;14.288;2024-03-29T04:31:34;95995.44;;;5.07;79.87
77003;BME280;65939;50.060;14.288;2024-03-29T04:33:35;95985.59;;;5.10;79.41
77003;BME280;65939;50.060;14.288;2024-03-29T04:35:37;95981.72;;;5.14;79.25
77003;BME280;65939;50.060;14.288;2024-03-29T04:37:38;95977.06;;;5.18;79.35
77003;BME280;65939;50.060;14.288;2024-03-29T04:39:39;95984.34;;;5.22;79.45
77003;BME280;65939;50.060;14.288;2024-03-29T04:41:39;95982.91;;;5.28;79.25
77003;BME280;65939;50.060;14.288;2024-03-29T04:43:40;95985.03;;;5.33;79.75
77003;BME280;65939;50.060;14.288;2024-03-29T04:45:41;95982.13;;;5.36;78.94
77003;BME280;65939;50.060;14.288;2024-03-29T04:47:41;95987.69;;;5.41;78.86
77003;BME280;65939;50.060;14.288;2024-03-29T04:49:42;95995.94;;;5.44;79.04
77003;BME280;65939;50.060;14.288;2024-03-29T04:51:43;95993.03;;;5.47;78.52
77003;BME280;65939;50.060;14.288;2024-03-29T04:53:44;96002.25;;;5.50;77.95
77003;BME280;65939;50.060;14.288;2024-03-29T04:55:44;96004.53;;;5.53;78.72
77003;BME280;65939;50.060;14.288;2024-03-29T04:57:48;96016.19;;;5.57;78.01
77003;BME280;65939;50.060;14.288;2024-03-29T04:59:48;96013.31;;;5.60;78.36
77003;BME280;65939;50.060;14.288;2024-03-29T05:01:49;96019.16;;;5.62;77.86
77003;BME280;65939;50.060;14.288;2024-03-29T05:03:53;96022.25;;;5.66;77.94
77003;BME280;65939;50.060;14.288;2024-03-29T05:05:54;96033.91;;;5.70;77.36
77003;BME280;65939;50.060;14.288;2024-03-29T05:07:55;96034.41;;;5.73;77.91
77003;BME280;65939;50.060;14.288;2024-03-29T05:09:55;96031.16;;;5.80;77.43
77003;BME280;65939;50.060;14.288;2024-03-29T05:11:56;96021.16;;;5.85;77.50
77003;BME280;65939;50.060;14.288;2024-03-29T05:13:57;96029.25;;;5.90;76.90
77003;BME280;65939;50.060;14.288;2024-03-29T05:16:02;96024.59;;;5.93;76.77
77003;BME280;65939;50.060;14.288;2024-03-29T05:18:03;96022.50;;;5.97;77.23
77003;BME280;65939;50.060;14.288;2024-03-29T05:20:05;96021.22;;;6.01;76.94
77003;BME280;65939;50.060;14.288;2024-03-29T05:22:06;96014.09;;;6.03;76.77
77003;BME280;65939;50.060;14.288;2024-03-29T05:24:07;96007.81;;;6.06;75.90
77003;BME280;65939;50.060;14.288;2024-03-29T05:26:08;96010.88;;;6.09;76.67
77003;BME280;65939;50.060;14.288;2024-03-29T05:28:09;96013.16;;;6.12;76.22
77003;BME280;65939;50.060;14.288;2024-03-29T05:30:10;96016.38;;;6.14;76.23
77003;BME280;65939;50.060;14.288;2024-03-29T05:32:11;96021.91;;;6.19;75.83
77003;BME280;65939;50.060;14.288;2024-03-29T05:34:11;96021.56;;;6.22;75.39
77003;BME280;65939;50.060;14.288;2024-03-29T05:36:12;96010.09;;;6.25;75.27
77003;BME280;65939;50.060;14.288;2024-03-29T05:38:13;96010.56;;;6.29;75.12
77003;BME280;65939;50.060;14.288;2024-03-29T05:40:14;96012.84;;;6.32;75.18
77003;BME280;65939;50.060;14.288;2024-03-29T05:42:15;96018.53;;;6.35;74.84
77003;BME280;65939;50.060;14.288;2024-03-29T05:44:15;96021.59;;;6.39;74.97
77003;BME280;65939;50.060;14.288;2024-03-29T05:46:17;96013.34;;;6.43;75.23
77003;BME280;65939;50.060;14.288;2024-03-29T05:48:18;96014.81;;;6.46;74.32
77003;BME280;65939;50.060;14.288;2024-03-29T05:50:19;96029.88;;;6.51;74.78
77003;BME280;65939;50.060;14.288;2024-03-29T05:52:20;96035.53;;;6.54;74.18
77003;BME280;65939;50.060;14.288;2024-03-29T05:54:23;96035.09;;;6.59;73.96
77003;BME280;65939;50.060;14.288;2024-03-29T05:56:25;96036.19;;;6.64;74.02
77003;BME280;65939;50.060;14.288;2024-03-29T05:58:25;96030.56;;;6.69;73.33
77003;BME280;65939;50.060;14.288;2024-03-29T06:00:26;96023.88;;;6.75;73.78
77003;BME280;65939;50.060;14.288;2024-03-29T06:02:27;96031.03;;;6.81;73.31
77003;BME280;65939;50.060;14.288;2024-03-29T06:04:28;96026.13;;;6.86;72.99
77003;BME280;65939;50.060;14.288;2024-03-29T06:06:36;96037.47;;;6.93;72.63
77003;BME280;65939;50.060;14.288;2024-03-29T06:08:36;96042.84;;;7.00;72.93
77003;BME280;65939;50.060;14.288;2024-03-29T06:10:38;96038.59;;;7.07;72.81
77003;BME280;65939;50.060;14.288;2024-03-29T06:12:38;96037.78;;;7.14;72.20
77003;BME280;65939;50.060;14.288;2024-03-29T06:14:39;96046.53;;;7.22;72.26
77003;BME280;65939;50.060;14.288;2024-03-29T06:16:58;96045.69;;;7.29;71.79
77003;BME280;65939;50.060;14.288;2024-03-29T06:19:17;96056.09;;;7.37;71.62
77003;BME280;65939;50.060;14.288;2024-03-29T06:21:18;96058.81;;;7.44;71.76
77003;BME280;65939;50.060;14.288;2024-03-29T06:23:19;96049.22;;;7.53;71.13
77003;BME280;65939;50.060;14.288;2024-03-29T06:25:19;96049.19;;;7.61;71.13
77003;BME280;65939;50.060;14.288;2024-03-29T06:27:20;96043.16;;;7.68;70.31
77003;BME280;65939;50.060;14.288;2024-03-29T06:29:23;96044.75;;;7.78;70.80
77003;BME280;65939;50.060;14.288;2024-03-29T06:31:24;96053.31;;;7.86;70.80
77003;BME280;65939;50.060;14.288;2024-03-29T06:33:25;96064.31;;;7.97;70.40
77003;BME280;65939;50.060;14.288;2024-03-29T06:35:25;96067.34;;;8.08;70.39
77003;BME280;65939;50.060;14.288;2024-03-29T06:37:26;96065.81;;;8.22;69.72
77003;BME280;65939;50.060;14.288;2024-03-29T06:39:28;96062.34;;;8.38;69.59
77003;BME280;65939;50.060;14.288;2024-03-29T06:41:29;96059.97;;;8.51;68.99
77003;BME280;65939;50.060;14.288;2024-03-29T06:43:30;96062.81;;;8.65;68.55
77003;BME280;65939;50.060;14.288;2024-03-29T06:45:30;96071.63;;;8.78;67.78
77003;BME280;65939;50.060;14.288;2024-03-29T06:47:31;96067.81;;;8.89;67.46
77003;BME280;65939;50.060;14.288;2024-03-29T06:49:32;96061.38;;;9.00;67.20
77003;BME280;65939;50.060;14.288;2024-03-29T06:51:33;96068.94;;;9.09;66.89
77003;BME280;65939;50.060;14.288;2024-03-29T06:53:34;96066.91;;;9.20;66.51
77003;BME280;65939;50.060;14.288;2024-03-29T06:55:35;96069.28;;;9.29;65.71
77003;BME280;65939;50.060;14.288;2024-03-29T06:57:37;96072.44;;;9.40;65.32
77003;BME280;65939;50.060;14.288;2024-03-29T06:59:38;96068.72;;;9.49;64.97
77003;BME280;65939;50.060;14.288;2024-03-29T07:01:39;96055.44;;;9.58;64.58
77003;BME280;65939;50.060;14.288;2024-03-29T07:03:40;96057.00;;;9.68;64.07
77003;BME280;65939;50.060;14.288;2024-03-29T07:05:41;96042.25;;;9.75;64.09
77003;BME280;65939;50.060;14.288;2024-03-29T07:07:42;96033.53;;;9.82;63.92
77003;BME280;65939;50.060;14.288;2024-03-29T07:09:42;96037.63;;;9.92;63.73
77003;BME280;65939;50.060;14.288;2024-03-29T07:11:45;96042.13;;;9.98;62.75
77003;BME280;65939;50.060;14.288;2024-03-29T07:13:46;96046.16;;;10.00;61.92
77003;BME280;65939;50.060;14.288;2024-03-29T07:15:53;96046.25;;;10.07;62.86
77003;BME280;65939;50.060;14.288;2024-03-29T07:17:54;96041.28;;;10.12;62.09
77003;BME280;65939;50.060;14.288;2024-03-29T07:19:54;96039.09;;;10.16;61.89
77003;BME280;65939;50.060;14.288;2024-03-29T07:21:55;96048.19;;;10.20;61.46
77003;BME280;65939;50.060;14.288;2024-03-29T07:23:56;96046.81;;;10.24;61.70
77003;BME280;65939;50.060;14.288;2024-03-29T07:25:59;96038.94;;;10.32;61.43
77003;BME280;65939;50.060;14.288;2024-03-29T07:27:59;96047.19;;;10.36;61.08
77003;BME280;65939;50.060;14.288;2024-03-29T07:30:01;96040.97;;;10.37;60.68
77003;BME280;65939;50.060;14.288;2024-03-29T07:32:06;96036.19;;;10.40;60.58
77003;BME280;65939;50.060;14.288;2024-03-29T07:34:06;96029.44;;;10.46;60.98
77003;BME280;65939;50.060;14.288;2024-03-29T07:36:07;96034.69;;;10.52;61.23
77003;BME280;65939;50.060;14.288;2024-03-29T07:38:10;96033.59;;;10.62;60.23
77003;BME280;65939;50.060;14.288;2024-03-29T07:40:11;96028.06;;;10.71;60.16
77003;BME280;65939;50.060;14.288;2024-03-29T07:42:12;96034.81;;;10.87;60.32
77003;BME280;65939;50.060;14.288;2024-03-29T07:44:13;96022.72;;;11.08;60.42
77003;BME280;65939;50.060;14.288;2024-03-29T07:46:13;96015.63;;;11.30;59.01
77003;BME280;65939;50.060;14.288;2024-03-29T07:48:16;96000.50;;;11.53;59.72
77003;BME280;65939;50.060;14.288;2024-03-29T07:50:17;95999.59;;;11.74;59.20
77003;BME280;65939;50.060;14.288;2024-03-29T07:52:18;95996.66;;;11.90;58.12
77003;BME280;65939;50.060;14.288;2024-03-29T07:54:19;95997.53;;;12.04;57.92
77003;BME280;65939;50.060;14.288;2024-03-29T07:56:20;96001.78;;;12.12;57.00
77003;BME280;65939;50.060;14.288;2024-03-29T07:58:22;95995.38;;;12.21;57.81
77003;BME280;65939;50.060;14.288;2024-03-29T08:00:22;95998.19;;;12.26;57.12
77003;BME280;65939;50.060;14.288;2024-03-29T08:02:24;95998.41;;;12.31;56.62
77003;BME280;65939;50.060;14.288;2024-03-29T08:04:24;96006.84;;;12.33;56.73
77003;BME280;65939;50.060;14.288;2024-03-29T08:06:25;96008.28;;;12.36;56.70
77003;BME280;65939;50.060;14.288;2024-03-29T08:08:26;96006.06;;;12.39;55.82
77003;BME280;65939;50.060;14.288;2024-03-29T08:10:27;96000.84;;;12.46;56.20
77003;BME280;65939;50.060;14.288;2024-03-29T08:12:28;95990.97;;;12.48;55.13
77003;BME280;65939;50.060;14.288;2024-03-29T08:14:28;95993.19;;;12.51;55.88
77003;BME280;65939;50.060;14.288;2024-03-29T08:16:29;95998.03;;;12.54;55.18
77003;BME280;65939;50.060;14.288;2024-03-29T08:18:31;95997.25;;;12.67;55.37
77003;BME280;65939;50.060;14.288;2024-03-29T08:20:32;95992.44;;;12.77;54.03
77003;BME280;65939;50.060;14.288;2024-03-29T08:22:33;96002.06;;;12.83;53.59
77003;BME280;65939;50.060;14.288;2024-03-29T08:24:34;96007.72;;;12.87;53.79
77003;BME280;65939;50.060;14.288;2024-03-29T08:26:35;95995.81;;;12.91;53.96
77003;BME280;65939;50.060;14.288;2024-03-29T08:28:36;96008.94;;;12.98;53.26
77003;BME280;65939;50.060;14.288;2024-03-29T08:30:39;96002.66;;;13.05;53.87
77003;BME280;65939;50.060;14.288;2024-03-29T08:32:43;96010.53;;;13.18;52.78
77003;BME280;65939;50.060;14.288;2024-03-29T08:34:44;96014.59;;;13.34;52.66
77003;BME280;65939;50.060;14.288;2024-03-29T08:36:45;96009.31;;;13.48;52.90
77003;BME280;65939;50.060;14.288;2024-03-29T08:38:46;96004.25;;;13.59;52.02
77003;BME280;65939;50.060;14.288;2024-03-29T08:40:47;95997.56;;;13.70;52.08
77003;BME280;65939;50.060;14.288;2024-03-29T08:42:48;95994.28;;;13.81;51.86
77003;BME280;65939;50.060;14.288;2024-03-29T08:44:51;95996.03;;;13.94;52.13
77003;BME280;65939;50.060;14.288;2024-03-29T08:46:52;95994.16;;;14.08;51.90
77003;BME280;65939;50.060;14.288;2024-03-29T08:48:54;95994.13;;;14.14;50.86
77003;BME280;65939;50.060;14.288;2024-03-29T08:50:58;96001.75;;;14.23;50.17
77003;BME280;65939;50.060;14.288;2024-03-29T08:52:59;95998.91;;;14.31;50.46
77003;BME280;65939;50.060;14.288;2024-03-29T08:54:59;95994.38;;;14.45;50.03
77003;BME280;65939;50.060;14.288;2024-03-29T08:57:00;96001.97;;;14.59;49.53
77003;BME280;65939;50.060;14.288;2024-03-29T08:59:03;95996.19;;;14.76;49.16
77003;BME280;65939;50.060;14.288;2024-03-29T09:01:07;95993.28;;;14.91;48.46
77003;BME280;65939;50.060;14.288;2024-03-29T09:03:08;95985.47;;;15.02;48.89
77003;BME280;65939;50.060;14.288;2024-03-29T09:05:09;95982.94;;;15.14;48.39
77003;BME280;65939;50.060;14.288;2024-03-29T09:07:10;95972.31;;;15.27;47.80
77003;BME280;65939;50.060;14.288;2024-03-29T09:09:11;95977.44;;;15.41;46.52
77003;BME280;65939;50.060;14.288;2024-03-29T09:11:11;95964.50;;;15.57;46.95
77003;BME280;65939;50.060;14.288;2024-03-29T09:13:13;95959.03;;;15.77;46.42
77003;BME280;65939;50.060;14.288;2024-03-29T09:15:15;95962.38;;;16.03;45.20
77003;BME280;65939;50.060;14.288;2024-03-29T09:17:17;95959.69;;;16.21;45.39
77003;BME280;65939;50.060;14.288;2024-03-29T09:19:18;95955.84;;;16.36;44.19
77003;BME280;65939;50.060;14.288;2024-03-29T09:21:19;95955.06;;;16.47;44.26
77003;BME280;65939;50.060;14.288;2024-03-29T09:23:19;95941.13;;;16.58;43.91
77003;BME280;65939;50.060;14.288;2024-03-29T09:25:23;95947.41;;;16.57;42.59
77003;BME280;65939;50.060;14.288;2024-03-29T09:27:26;95949.50;;;16.55;42.89
77003;BME280;65939;50.060;14.288;2024-03-29T09:29:27;95945.38;;;16.59;42.20
77003;BME280;65939;50.060;14.288;2024-03-29T09:31:28;95945.47;;;16.64;42.07
77003;BME280;65939;50.060;14.288;2024-03-29T09:33:29;95934.75;;;16.78;41.70
77003;BME280;65939;50.060;14.288;2024-03-29T09:35:30;95930.31;;;16.90;41.16
77003;BME280;65939;50.060;14.288;2024-03-29T09:37:31;95929.38;;;16.96;41.49
77003;BME280;65939;50.060;14.288;2024-03-29T09:39:36;95923.53;;;17.06;40.88
77003;BME280;65939;50.060;14.288;2024-03-29T09:41:40;95923.97;;;17.14;40.87
77003;BME280;65939;50.060;14.288;2024-03-29T09:43:59;95926.16;;;17.29;40.94
77003;BME280;65939;50.060;14.288;2024-03-29T09:46:03;95928.19;;;17.39;40.82
77003;BME280;65939;50.060;14.288;2024-03-29T09:48:04;95910.41;;;17.46;40.65
77003;BME280;65939;50.060;14.288;2024-03-29T09:50:07;95899.97;;;17.51;40.35
77003;BME280;65939;50.060;14.288;2024-03-29T09:52:09;95901.31;;;17.54;40.84
77003;BME280;65939;50.060;14.288;2024-03-29T09:54:12;95890.63;;;17.60;40.41
77003;BME280;65939;50.060;14.288;2024-03-29T09:56:16;95895.13;;;17.60;39.63
77003;BME280;65939;50.060;14.288;2024-03-29T09:58:21;95890.41;;;17.62;39.89
77003;BME280;65939;50.060;14.288;2024-03-29T10:00:21;95887.53;;;17.63;39.81
77003;BME280;65939;50.060;14.288;2024-03-29T10:02:27;95885.22;;;17.67;39.45
77003;BME280;65939;50.060;14.288;2024-03-29T10:04:29;95883.16;;;17.69;38.92
77003;BME280;65939;50.060;14.288;2024-03-29T10:06:34;95883.38;;;17.67;39.23
77003;BME280;65939;50.060;14.288;2024-03-29T10:08:35;95890.50;;;17.67;38.43
77003;BME280;65939;50.060;14.288;2024-03-29T10:10:37;95894.72;;;17.68;38.29
77003;BME280;65939;50.060;14.288;2024-03-29T10:12:40;95897.72;;;17.71;39.16
77003;BME280;65939;50.060;14.288;2024-03-29T10:14:45;95899.78;;;17.81;38.21
77003;BME280;65939;50.060;14.288;2024-03-29T10:16:58;95904.47;;;17.91;38.58
77003;BME280;65939;50.060;14.288;2024-03-29T10:18:59;95904.06;;;17.99;38.84
77003;BME280;65939;50.060;14.288;2024-03-29T10:21:06;95898.91;;;18.04;38.37
77003;BME280;65939;50.060;14.288;2024-03-29T10:23:09;95896.34;;;18.09;38.30
77003;BME280;65939;50.060;14.288;2024-03-29T10:25:10;95899.31;;;18.13;38.61
77003;BME280;65939;50.060;14.288;2024-03-29T10:27:14;95884.25;;;18.13;38.32
77003;BME280;65939;50.060;14.288;2024-03-29T10:29:15;95882.41;;;18.14;38.33
77003;BME280;65939;50.060;14.288;2024-03-29T10:31:17;95885.63;;;18.16;38.24
77003;BME280;65939;50.060;14.288;2024-03-29T10:33:38;95876.50;;;18.24;38.54
77003;BME280;65939;50.060;14.288;2024-03-29T10:35:43;95880.91;;;18.35;37.78
77003;BME280;65939;50.060;14.288;2024-03-29T10:37:46;95872.69;;;18.48;38.06
77003;BME280;65939;50.060;14.288;2024-03-29T10:39:52;95872.59;;;18.60;37.60
77003;BME280;65939;50.060;14.288;2024-03-29T10:41:55;95872.03;;;18.75;37.90